Time;durP1;ratioP1;P1;durP2;ratioP2;P2;SDS_P1;SDS_P2;PMS_P1;PMS_P2;Temp;Humidity;BMP_temperature;BMP_pressure;BME280_temperature;BME280_humidity;BME280_pressure;Samples;Min_cycle;Max_cycle;Signal;HPM_P1;HPM_P2
2022/06/05 00:03:44;;;;;;;5.75;4.43;;;23.90;84.20;;;;;;10012606;28;20034;-59
2022/06/05 00:09:02;;;;;;;6.32;4.50;;;23.90;84.90;;;;;;10003564;28;20488;-61
2022/06/05 00:13:55;;;;;;;7.18;5.38;;;23.90;85.90;;;;;;10005642;28;20041;-62
2022/06/05 00:18:46;;;;;;;7.57;5.18;;;23.80;85.20;;;;;;10012211;28;20022;-62
2022/06/05 00:23:37;;;;;;;5.38;4.93;;;23.70;85.40;;;;;;10013800;28;20259;-61
2022/06/05 00:28:41;;;;;;;6.88;4.38;;;23.70;85.70;;;;;;10020548;28;20023;-62
2022/06/05 00:33:43;;;;;;;4.97;4.47;;;23.50;86.00;;;;;;10002263;28;20080;-61
2022/06/05 00:39:08;;;;;;;6.40;5.53;;;23.30;87.90;;;;;;10019719;28;20041;-60
2022/06/05 00:44:01;;;;;;;6.03;4.95;;;23.30;87.80;;;;;;10018191;28;20124;-61
2022/06/05 00:48:52;;;;;;;6.53;4.80;;;23.30;88.10;;;;;;10017865;28;20164;-60
2022/06/05 00:53:42;;;;;;;6.35;4.65;;;23.40;88.60;;;;;;10018709;28;20056;-61
2022/06/05 00:58:33;;;;;;;4.03;3.63;;;23.50;89.20;;;;;;10018419;28;20492;-59
2022/06/05 01:03:24;;;;;;;7.57;3.78;;;23.50;88.80;;;;;;10018796;28;20034;-60
2022/06/05 01:08:16;;;;;;;4.70;4.05;;;23.70;88.30;;;;;;10017800;28;20029;-60
2022/06/05 01:13:33;;;;;;;7.32;4.32;;;23.50;88.90;;;;;;10012605;28;20029;-61
2022/06/05 01:18:32;;;;;;;5.20;4.38;;;23.60;88.60;;;;;;10017160;28;20034;-60
2022/06/05 01:24:00;;;;;;;4.63;3.63;;;23.50;88.90;;;;;;10016745;28;20318;-60
2022/06/05 01:28:59;;;;;;;5.45;3.85;;;23.50;89.10;;;;;;10017414;28;20030;-60
2022/06/05 01:34:26;;;;;;;4.97;3.95;;;23.30;88.90;;;;;;10016607;28;20026;-61
2022/06/05 01:39:42;;;;;;;6.55;4.07;;;23.40;88.90;;;;;;10014959;28;20373;-59
2022/06/05 01:44:40;;;;;;;5.13;4.30;;;23.30;88.50;;;;;;10016269;28;20034;-59
2022/06/05 01:49:37;;;;;;;4.30;3.65;;;23.30;88.80;;;;;;10016278;28;20417;-59
2022/06/05 01:54:46;;;;;;;5.07;4.20;;;23.20;89.20;;;;;;10007604;28;20427;-61
2022/06/05 01:59:43;;;;;;;4.75;3.40;;;23.20;89.20;;;;;;10009774;28;20092;-60
2022/06/05 02:04:36;;;;;;;9.85;4.65;;;23.20;88.90;;;;;;10015945;28;20042;-61
2022/06/05 02:09:34;;;;;;;5.50;4.00;;;23.20;88.90;;;;;;10015703;28;20017;-59
2022/06/05 02:14:25;;;;;;;7.43;4.10;;;23.20;88.90;;;;;;9998491;28;20556;-61
2022/06/05 02:19:18;;;;;;;5.40;3.55;;;23.20;89.10;;;;;;10014388;28;20018;-61
2022/06/05 02:24:12;;;;;;;5.07;3.67;;;23.20;88.90;;;;;;10014179;28;20527;-60
2022/06/05 02:29:08;;;;;;;7.70;5.03;;;23.10;89.10;;;;;;9996230;28;20026;-60
2022/06/05 02:34:12;;;;;;;7.32;4.40;;;22.40;90.40;;;;;;10021178;28;20079;-60
2022/06/05 02:39:07;;;;;;;7.38;3.67;;;20.60;95.90;;;;;;10016052;28;20058;-61
2022/06/05 02:44:34;;;;;;;16.70;4.70;;;19.70;95.70;;;;;;10014335;28;20079;-60
2022/06/05 02:49:44;;;;;;;7.43;5.35;;;19.50;99.90;;;;;;10013039;28;20583;-60
2022/06/05 02:54:47;;;;;;;8.13;4.28;;;19.20;99.90;;;;;;10007961;28;20365;-61
2022/06/05 02:59:38;;;;;;;6.80;3.47;;;19.40;99.90;;;;;;9989753;28;20022;-62
2022/06/05 03:04:28;;;;;;;8.30;4.03;;;19.60;99.90;;;;;;10014773;28;20516;-61
2022/06/05 03:09:19;;;;;;;5.28;3.70;;;19.90;99.90;;;;;;10012353;28;20104;-60
2022/06/05 03:14:10;;;;;;;7.32;3.78;;;20.20;99.90;;;;;;10012955;28;20160;-61
2022/06/05 03:19:01;;;;;;;7.35;4.28;;;20.40;99.90;;;;;;10012858;28;20034;-60
2022/06/05 03:23:52;;;;;;;4.80;3.75;;;20.40;99.90;;;;;;10013189;28;20045;-61
2022/06/05 03:28:42;;;;;;;5.47;4.03;;;20.60;99.90;;;;;;10013143;28;20030;-60
2022/06/05 03:33:34;;;;;;;6.55;4.00;;;20.70;99.90;;;;;;10013849;28;20013;-62
2022/06/05 03:38:25;;;;;;;6.03;3.88;;;20.80;99.90;;;;;;10013309;28;20034;-60
2022/06/05 03:43:17;;;;;;;6.13;3.63;;;20.80;99.90;;;;;;10012462;28;20419;-60
2022/06/05 03:48:08;;;;;;;5.38;3.60;;;20.70;99.90;;;;;;10012793;28;20034;-60
2022/06/05 03:52:59;;;;;;;4.75;3.83;;;20.80;99.90;;;;;;10011978;28;20042;-60
2022/06/05 03:57:50;;;;;;;5.35;3.15;;;20.80;99.90;;;;;;10014761;28;20414;-60
2022/06/05 04:02:41;;;;;;;9.10;4.35;;;20.70;99.90;;;;;;10020536;28;20109;-61
2022/06/05 04:07:32;;;;;;;4.88;3.00;;;20.70;99.90;;;;;;10020051;28;20030;-60
2022/06/05 04:12:23;;;;;;;4.82;2.80;;;20.90;99.90;;;;;;10020945;28;20021;-61
2022/06/05 04:17:13;;;;;;;3.13;2.47;;;20.90;99.90;;;;;;10022630;28;20540;-62
2022/06/05 04:22:04;;;;;;;5.18;3.03;;;20.90;99.90;;;;;;10019742;28;20030;-62
2022/06/05 04:26:55;;;;;;;5.07;2.65;;;20.90;99.90;;;;;;10023673;28;20029;-62
2022/06/05 04:31:48;;;;;;;4.45;2.78;;;20.90;99.90;;;;;;10000998;28;20056;-61
2022/06/05 04:36:39;;;;;;;4.10;3.00;;;20.90;99.90;;;;;;10019048;28;20428;-60
2022/06/05 04:41:30;;;;;;;3.53;2.47;;;20.80;99.90;;;;;;10018343;28;20030;-60
2022/06/05 04:46:22;;;;;;;4.82;2.70;;;20.70;99.90;;;;;;10018961;28;20268;-61
2022/06/05 04:51:13;;;;;;;4.78;2.50;;;20.70;99.90;;;;;;10018678;28;20342;-61
2022/06/05 04:56:06;;;;;;;5.45;3.30;;;20.70;99.90;;;;;;10018618;28;20026;-62
2022/06/05 05:00:57;;;;;;;5.13;3.15;;;20.90;99.90;;;;;;10019393;28;20041;-62
2022/06/05 05:05:47;;;;;;;3.90;2.85;;;21.00;99.90;;;;;;10016131;28;20034;-61
2022/06/05 05:10:38;;;;;;;4.65;3.40;;;21.20;99.90;;;;;;10016249;28;20022;-63
2022/06/05 05:15:29;;;;;;;3.55;2.85;;;21.20;99.90;;;;;;10017864;28;20056;-61
2022/06/05 05:20:20;;;;;;;3.58;2.92;;;21.30;99.90;;;;;;10015956;28;20121;-62
2022/06/05 05:25:11;;;;;;;7.47;3.47;;;21.20;99.90;;;;;;10016731;28;20049;-62
2022/06/05 05:30:04;;;;;;;3.83;3.33;;;20.90;99.90;;;;;;10017057;28;20523;-61
2022/06/05 05:34:55;;;;;;;5.07;3.60;;;20.90;99.90;;;;;;10016041;28;20034;-61
2022/06/05 05:44:55;;;;;;;4.97;3.42;;;21.10;99.90;;;;;;10016409;28;20577;-61
2022/06/05 05:49:46;;;;;;;3.55;3.25;;;21.20;99.90;;;;;;10017815;28;20084;-61
2022/06/05 05:54:38;;;;;;;3.83;3.28;;;21.30;99.90;;;;;;10016001;28;20433;-61
2022/06/05 05:59:28;;;;;;;4.30;3.55;;;21.30;99.90;;;;;;10016135;28;20034;-61
2022/06/05 06:04:19;;;;;;;7.15;4.18;;;21.30;99.90;;;;;;10016020;28;20042;-61
2022/06/05 06:09:10;;;;;;;6.05;4.95;;;21.40;99.90;;;;;;10014215;28;20022;-62
2022/06/05 06:14:01;;;;;;;5.45;4.10;;;21.40;99.90;;;;;;10015294;28;20022;-61
2022/06/05 06:18:51;;;;;;;7.50;4.72;;;21.40;99.90;;;;;;10018367;28;20076;-62
2022/06/05 06:23:42;;;;;;;6.88;3.85;;;21.40;99.90;;;;;;10013664;28;20124;-61
2022/06/05 06:28:33;;;;;;;6.35;4.68;;;21.60;99.90;;;;;;10016783;28;20052;-61
2022/06/05 06:33:24;;;;;;;8.13;4.78;;;21.50;99.90;;;;;;9997367;28;20061;-62
2022/06/05 06:38:14;;;;;;;8.05;5.72;;;21.60;99.90;;;;;;9997244;28;20034;-62
2022/06/05 06:43:05;;;;;;;4.88;4.20;;;21.70;99.90;;;;;;10014403;28;20030;-61
2022/06/05 06:47:56;;;;;;;7.53;5.00;;;21.70;99.90;;;;;;10014187;28;20030;-62
2022/06/05 06:52:46;;;;;;;7.88;5.40;;;21.60;99.90;;;;;;10014568;28;20125;-61
2022/06/05 06:57:37;;;;;;;5.65;4.60;;;21.70;99.90;;;;;;10013815;28;20040;-61
2022/06/05 07:02:28;;;;;;;6.32;4.43;;;21.60;99.90;;;;;;10013234;28;20025;-61
2022/06/05 07:07:18;;;;;;;6.13;4.00;;;21.60;99.90;;;;;;10013459;28;20057;-61
2022/06/05 07:12:09;;;;;;;6.97;4.50;;;21.60;99.90;;;;;;10013216;28;20033;-62
2022/06/05 07:17:00;;;;;;;8.10;4.47;;;21.70;99.90;;;;;;10015458;28;20407;-61
2022/06/05 07:21:51;;;;;;;6.53;3.90;;;21.60;99.90;;;;;;10012558;28;20037;-61
2022/06/05 07:26:44;;;;;;;4.95;3.97;;;21.50;99.90;;;;;;10012805;28;20030;-60
2022/06/05 07:31:34;;;;;;;7.70;4.10;;;21.40;99.90;;;;;;10012075;28;20676;-60
2022/06/05 07:36:26;;;;;;;7.85;4.50;;;21.40;99.90;;;;;;9994571;28;20273;-62
2022/06/05 07:41:26;;;;;;;5.88;4.28;;;21.60;99.90;;;;;;10012528;28;20022;-62
2022/06/05 07:46:18;;;;;;;7.05;4.22;;;21.80;99.90;;;;;;10013021;28;20041;-62
2022/06/05 07:56:24;;;;;;;5.15;3.95;;;22.00;99.90;;;;;;10013676;28;20045;-60
2022/06/05 08:01:15;;;;;;;6.40;3.10;;;21.80;99.90;;;;;;9996964;28;20033;-61
2022/06/05 08:06:07;;;;;;;5.53;3.63;;;21.90;99.90;;;;;;10016571;28;20034;-61
2022/06/05 08:11:03;;;;;;;7.15;3.20;;;22.10;99.90;;;;;;10012091;28;20030;-63
2022/06/05 08:15:53;;;;;;;7.32;3.60;;;22.30;99.90;;;;;;10012187;28;20057;-61
2022/06/05 08:20:44;;;;;;;5.03;4.00;;;22.10;99.90;;;;;;10012320;28;20447;-60
2022/06/05 08:25:35;;;;;;;6.88;3.58;;;22.10;99.90;;;;;;10012340;28;20042;-66
2022/06/05 08:30:26;;;;;;;4.95;3.65;;;22.10;99.90;;;;;;10012708;28;20120;-61
2022/06/05 08:35:17;;;;;;;4.43;3.63;;;22.60;99.90;;;;;;10012600;28;20604;-61
2022/06/05 08:45:47;;;;;;;5.60;3.85;;;23.50;99.90;;;;;;9983930;28;20050;-61
2022/06/05 08:50:50;;;;;;;6.15;4.53;;;23.40;99.90;;;;;;10018232;28;20414;-61
2022/06/05 08:55:44;;;;;;;6.45;3.75;;;23.40;99.90;;;;;;10014987;28;20049;-61
2022/06/05 09:00:43;;;;;;;6.72;4.68;;;23.70;99.90;;;;;;10018047;28;20045;-61
2022/06/05 09:05:45;;;;;;;7.93;4.53;;;23.90;99.90;;;;;;10018422;28;20080;-62
2022/06/05 09:10:42;;;;;;;6.07;4.00;;;24.30;99.90;;;;;;10015043;28;20626;-61
2022/06/05 09:15:58;;;;;;;5.50;4.63;;;24.50;99.90;;;;;;10017224;28;20065;-62
2022/06/05 09:20:55;;;;;;;4.47;3.63;;;24.80;99.90;;;;;;10017331;28;20029;-61
2022/06/05 09:26:18;;;;;;;5.18;3.38;;;24.90;99.90;;;;;;10017790;28;20042;-61
2022/06/05 09:31:17;;;;;;;5.28;4.00;;;25.00;99.90;;;;;;10017145;28;20516;-61
2022/06/05 09:36:13;;;;;;;6.05;3.88;;;25.10;99.90;;;;;;10017492;28;20110;-61
2022/06/05 09:41:39;;;;;;;3.58;3.22;;;25.00;99.90;;;;;;10016647;28;20029;-62
2022/06/05 09:46:32;;;;;;;4.78;3.60;;;25.00;99.90;;;;;;9977217;28;20045;-61
2022/06/05 09:51:24;;;;;;;6.10;3.83;;;25.30;99.90;;;;;;10016085;28;20124;-60
2022/06/05 09:58:24;;;;;;;8.15;3.45;;;25.50;99.90;;;;;;10016915;28;20026;-63
2022/06/05 10:01:54;;;;;;;9.38;3.50;;;25.50;99.90;;;;;;10014083;28;20053;-61
2022/06/05 10:07:03;;;;;;;5.57;3.30;;;25.00;99.90;;;;;;10016205;28;20045;-60
2022/06/05 10:12:13;;;;;;;5.55;4.55;;;25.00;99.90;;;;;;10013892;28;20026;-61
2022/06/05 10:17:22;;;;;;;8.20;3.65;;;25.30;99.90;;;;;;10016177;28;20082;-61
2022/06/05 10:22:29;;;;;;;5.93;3.75;;;25.60;99.90;;;;;;10007478;28;20104;-60
2022/06/05 10:27:21;;;;;;;5.30;3.50;;;26.10;99.90;;;;;;10009069;28;20030;-61
2022/06/05 10:32:27;;;;;;;5.75;3.55;;;26.70;99.90;;;;;;10014895;28;20442;-61
2022/06/05 10:37:28;;;;;;;3.95;3.00;;;26.60;99.90;;;;;;10014936;28;20030;-60
2022/06/05 10:42:40;;;;;;;3.97;2.85;;;26.60;99.90;;;;;;10014895;28;20164;-61
2022/06/05 10:47:43;;;;;;;4.57;4.03;;;26.80;99.90;;;;;;10014780;28;20229;-62
2022/06/05 10:53:06;;;;;;;3.40;2.63;;;27.10;99.90;;;;;;10013550;28;20038;-61
2022/06/05 10:58:29;;;;;;;5.13;3.27;;;27.40;99.90;;;;;;10007464;28;20262;-60
2022/06/05 11:03:47;;;;;;;4.75;2.10;;;27.20;99.90;;;;;;10011744;28;20112;-61
2022/06/05 11:08:59;;;;;;;2.83;2.03;;;26.80;99.10;;;;;;10004431;28;20030;-61
2022/06/05 11:14:20;;;;;;;4.75;1.20;;;26.20;99.90;;;;;;10006459;28;20650;-60
2022/06/05 11:19:14;;;;;;;2.80;1.33;;;25.10;99.90;;;;;;10013845;28;20026;-61
2022/06/05 11:24:13;;;;;;;1.83;1.63;;;24.90;99.90;;;;;;10013754;28;20535;-61
2022/06/05 11:29:21;;;;;;;2.70;1.30;;;24.60;99.90;;;;;;10013668;28;20034;-61
2022/06/05 11:34:36;;;;;;;2.15;1.50;;;24.40;99.90;;;;;;10011859;28;20602;-61
2022/06/05 11:39:33;;;;;;;;;;;24.20;99.90;;;;;;10001626;28;20578;-60
2022/06/05 11:44:29;;;;;;;1.40;1.30;;;24.20;99.90;;;;;;10012956;28;19921;-61
2022/06/05 11:49:33;;;;;;;2.00;1.30;;;24.50;99.90;;;;;;10011064;28;20129;-61
2022/06/05 11:54:47;;;;;;;1.40;1.00;;;24.60;99.90;;;;;;10013278;28;20026;-61
2022/06/05 11:59:56;;;;;;;1.98;1.35;;;24.80;99.90;;;;;;10012169;28;20257;-61
2022/06/05 12:05:18;;;;;;;2.17;1.20;;;25.30;99.90;;;;;;10015559;28;20157;-60
2022/06/05 12:10:23;;;;;;;3.05;1.27;;;25.70;99.30;;;;;;10001831;28;20052;-61
2022/06/05 12:15:31;;;;;;;0.98;0.75;;;26.40;99.90;;;;;;10001637;28;20029;-61
2022/06/05 12:20:44;;;;;;;3.80;1.30;;;26.90;99.90;;;;;;10016396;28;20033;-60
2022/06/05 12:25:59;;;;;;;1.17;1.00;;;27.40;99.90;;;;;;10013283;28;20073;-61
2022/06/05 12:31:12;;;;;;;3.47;1.48;;;28.30;99.90;;;;;;10015794;28;20045;-60
2022/06/05 12:36:45;;;;;;;1.30;1.03;;;29.10;99.90;;;;;;10018617;28;20496;-62
2022/06/05 12:42:07;;;;;;;0.90;0.80;;;29.90;99.90;;;;;;10011420;28;20368;-61
2022/06/05 12:47:07;;;;;;;2.40;1.30;;;29.00;99.90;;;;;;10018501;28;20029;-60
2022/06/05 12:52:15;;;;;;;2.38;1.33;;;29.10;99.80;;;;;;10019092;28;20081;-61
2022/06/05 12:57:14;;;;;;;5.50;1.35;;;28.60;97.50;;;;;;10018797;28;20022;-61
2022/06/05 13:02:25;;;;;;;1.17;0.88;;;28.40;98.80;;;;;;10012333;28;20030;-62
2022/06/05 13:07:20;;;;;;;2.40;1.02;;;28.40;98.50;;;;;;10009987;28;20030;-60
2022/06/05 13:12:34;;;;;;;2.08;1.08;;;28.20;98.00;;;;;;10010110;28;20045;-61
2022/06/05 13:17:42;;;;;;;2.63;1.20;;;27.70;96.80;;;;;;10000083;28;20052;-61
2022/06/05 13:22:56;;;;;;;4.60;1.13;;;28.10;96.70;;;;;;10017353;28;20440;-60
2022/06/05 13:28:35;;;;;;;1.40;1.13;;;30.10;94.40;;;;;;10017047;28;20113;-60
2022/06/05 13:33:41;;;;;;;1.55;1.00;;;30.70;90.70;;;;;;9986438;28;20034;-61
2022/06/05 13:38:52;;;;;;;1.20;1.10;;;29.10;95.70;;;;;;9999616;28;20571;-61
2022/06/05 13:43:49;;;;;;;4.03;1.63;;;28.10;96.20;;;;;;10017024;28;20022;-60
2022/06/05 13:49:20;;;;;;;1.10;0.93;;;28.00;95.60;;;;;;10021802;28;20021;-60
2022/06/05 13:54:21;;;;;;;1.55;1.08;;;27.50;95.20;;;;;;10017169;28;20228;-60
2022/06/05 13:59:28;;;;;;;1.40;0.70;;;26.70;96.20;;;;;;10016507;28;20022;-59
2022/06/05 14:04:22;;;;;;;1.08;0.90;;;25.60;96.50;;;;;;10016258;28;20033;-61
2022/06/05 14:09:33;;;;;;;1.00;0.70;;;24.70;97.10;;;;;;10015855;28;20022;-60
2022/06/05 14:14:42;;;;;;;1.10;0.80;;;24.00;96.00;;;;;;10015699;28;20364;-59
2022/06/05 14:19:37;;;;;;;1.15;0.57;;;22.90;95.70;;;;;;10015287;28;20022;-61
2022/06/05 14:24:34;;;;;;;2.30;0.50;;;22.20;96.80;;;;;;9998309;28;20041;-59
2022/06/05 14:29:36;;;;;;;1.30;0.73;;;21.20;97.20;;;;;;10015763;28;20038;-61
2022/06/05 14:34:34;;;;;;;0.90;0.65;;;20.70;98.00;;;;;;10016190;28;20733;-61
2022/06/05 14:39:34;;;;;;;0.98;0.80;;;21.10;98.20;;;;;;10004810;28;20407;-60
2022/06/05 14:44:40;;;;;;;1.30;0.60;;;21.20;98.40;;;;;;10013121;28;20419;-61
2022/06/05 14:49:35;;;;;;;;;;;21.40;98.50;;;;;;10015147;28;20034;-61
2022/06/05 15:00:12;;;;;;;1.20;0.90;;;22.10;98.80;;;;;;10011991;28;20084;-60
2022/06/05 15:05:52;;;;;;;4.30;2.08;;;23.30;98.40;;;;;;10015123;28;20034;-59
2022/06/05 15:10:47;;;;;;;4.03;0.80;;;23.80;97.50;;;;;;9999440;28;20034;-59
2022/06/05 15:15:52;;;;;;;1.42;0.77;;;23.40;98.10;;;;;;10014753;28;20047;-60
2022/06/05 15:21:04;;;;;;;1.50;0.65;;;23.10;98.30;;;;;;10014451;28;20061;-60
2022/06/05 15:26:16;;;;;;;1.40;0.60;;;23.20;98.00;;;;;;10014816;28;20084;-60
2022/06/05 15:31:10;;;;;;;0.55;0.55;;;23.30;98.00;;;;;;10012915;28;20034;-61
2022/06/05 15:36:06;;;;;;;0.63;0.50;;;23.30;98.10;;;;;;10013131;28;20030;-61
2022/06/05 15:41:35;;;;;;;0.50;0.50;;;24.00;97.60;;;;;;10012819;28;20025;-61
2022/06/05 15:46:32;;;;;;;1.67;0.73;;;26.20;95.80;;;;;;10003683;28;20092;-60
2022/06/05 15:51:35;;;;;;;0.75;0.40;;;25.50;96.10;;;;;;10012261;28;20073;-60
2022/06/05 15:56:37;;;;;;;3.30;0.60;;;25.60;95.90;;;;;;10018909;28;20064;-61
2022/06/05 16:01:43;;;;;;;0.52;0.35;;;27.70;94.50;;;;;;10020404;28;20014;-60
2022/06/05 16:06:45;;;;;;;1.13;0.80;;;28.70;93.30;;;;;;10017771;28;20033;-60
2022/06/05 16:12:02;;;;;;;0.98;0.70;;;30.50;92.70;;;;;;10019865;28;20859;-60
2022/06/05 16:17:23;;;;;;;0.90;0.70;;;31.70;90.70;;;;;;10009643;28;20504;-61
2022/06/05 16:22:43;;;;;;;0.65;0.60;;;32.20;88.20;;;;;;10016441;28;20026;-60
2022/06/05 16:28:18;;;;;;;0.55;0.50;;;32.90;88.50;;;;;;10008939;28;20131;-60
2022/06/05 16:33:27;;;;;;;1.38;0.65;;;34.00;85.20;;;;;;9920310;28;20046;-63
2022/06/05 16:38:24;;;;;;;0.60;0.60;;;34.40;82.90;;;;;;10022892;28;20058;-61
2022/06/05 16:43:21;;;;;;;1.08;0.80;;;34.60;82.20;;;;;;10019698;28;20118;-62
2022/06/05 16:48:19;;;;;;;1.65;0.70;;;34.20;79.70;;;;;;10019330;28;20026;-61
2022/06/05 16:53:28;;;;;;;1.50;1.05;;;34.10;75.90;;;;;;10018875;28;20076;-62
2022/06/05 16:58:24;;;;;;;1.67;0.93;;;34.70;66.30;;;;;;10018651;28;20546;-61
2022/06/05 17:03:27;;;;;;;2.22;1.20;;;32.90;69.60;;;;;;10018739;28;20042;-61
2022/06/05 17:08:50;;;;;;;1.00;0.68;;;32.40;67.40;;;;;;9999894;28;20018;-61
2022/06/05 17:13:44;;;;;;;1.92;1.17;;;33.40;63.90;;;;;;10015786;28;20022;-61
2022/06/05 17:18:39;;;;;;;3.70;1.08;;;33.40;63.30;;;;;;10018439;28;20484;-60
2022/06/05 17:24:05;;;;;;;3.67;1.42;;;34.00;61.10;;;;;;10017844;28;20042;-60
2022/06/05 17:29:23;;;;;;;1.33;1.08;;;33.00;60.70;;;;;;10008618;28;20046;-62
2022/06/05 17:34:43;;;;;;;3.72;1.42;;;32.60;60.60;;;;;;10024042;28;20018;-60
2022/06/05 17:39:52;;;;;;;2.13;1.20;;;32.30;61.00;;;;;;10017093;28;20316;-60
2022/06/05 17:44:57;;;;;;;1.58;1.10;;;32.20;61.30;;;;;;10017127;28;20034;-60
2022/06/05 17:50:05;;;;;;;1.27;0.85;;;32.10;60.70;;;;;;10009474;28;20053;-60
2022/06/05 17:55:17;;;;;;;1.15;0.73;;;30.60;63.60;;;;;;10017455;28;20052;-61
2022/06/05 18:00:08;;;;;;;1.67;0.75;;;28.60;66.80;;;;;;10015845;28;20055;-61
2022/06/05 18:05:24;;;;;;;4.13;1.20;;;27.60;68.50;;;;;;10015772;28;20060;-61
2022/06/05 18:10:31;;;;;;;2.45;0.88;;;26.80;69.60;;;;;;10005974;28;20032;-61
2022/06/05 18:15:24;;;;;;;2.47;1.38;;;26.10;71.50;;;;;;10007110;28;20038;-62
2022/06/05 18:20:18;;;;;;;3.10;1.40;;;26.00;72.00;;;;;;9997189;28;20026;-61
2022/06/05 18:25:38;;;;;;;1.10;0.90;;;25.50;73.10;;;;;;9998767;28;20113;-60
2022/06/05 18:30:38;;;;;;;4.60;1.27;;;25.30;74.10;;;;;;10014001;28;20042;-60
2022/06/05 18:40:51;;;;;;;1.42;1.15;;;24.70;76.20;;;;;;10019336;28;20506;-61
2022/06/05 18:45:46;;;;;;;1.67;1.33;;;24.50;77.20;;;;;;10015161;28;20125;-60
2022/06/05 18:50:41;;;;;;;2.63;1.40;;;24.40;78.10;;;;;;10014680;28;20081;-62
2022/06/05 18:55:36;;;;;;;;;;;24.40;78.90;;;;;;9996998;28;20583;-60
2022/06/05 19:00:31;;;;;;;2.65;1.65;;;24.20;80.00;;;;;;10014486;28;19909;-61
2022/06/05 19:05:37;;;;;;;2.58;2.13;;;24.20;80.30;;;;;;10014084;28;20041;-61
2022/06/05 19:10:30;;;;;;;2.28;1.63;;;24.00;81.30;;;;;;10014432;28;20022;-61
2022/06/05 19:15:46;;;;;;;4.68;2.30;;;24.00;82.30;;;;;;10013845;28;20071;-61
2022/06/05 19:20:52;;;;;;;2.78;1.52;;;23.90;83.50;;;;;;10014386;28;20069;-62
2022/06/05 19:25:45;;;;;;;2.70;1.70;;;23.90;84.10;;;;;;10009368;28;20528;-61
2022/06/05 19:30:37;;;;;;;2.50;1.85;;;23.70;85.40;;;;;;10009943;28;20022;-61
2022/06/05 19:35:36;;;;;;;1.77;1.40;;;23.60;85.70;;;;;;10014671;28;20052;-62
2022/06/05 19:40:29;;;;;;;3.17;1.90;;;23.50;86.60;;;;;;10014004;28;20064;-61
2022/06/05 19:45:35;;;;;;;2.03;1.85;;;23.50;87.20;;;;;;10013892;28;20567;-60
2022/06/05 19:50:46;;;;;;;3.55;2.00;;;23.60;87.80;;;;;;10013291;28;20631;-60
2022/06/05 19:55:37;;;;;;;3.10;1.98;;;23.50;88.70;;;;;;10009894;28;20286;-61
2022/06/05 20:00:33;;;;;;;2.80;1.73;;;23.20;89.50;;;;;;10013131;28;20032;-61
2022/06/05 20:05:33;;;;;;;2.92;1.58;;;23.20;89.90;;;;;;10011122;28;20468;-61
2022/06/05 20:10:44;;;;;;;3.88;2.10;;;23.20;90.20;;;;;;10012339;28;20037;-60
2022/06/05 20:15:36;;;;;;;2.38;1.70;;;23.20;90.30;;;;;;10012457;28;20032;-60
2022/06/05 20:20:26;;;;;;;2.97;2.55;;;23.20;90.50;;;;;;9994240;28;20041;-61
2022/06/05 20:25:23;;;;;;;3.25;2.22;;;23.20;90.60;;;;;;9994958;28;20065;-61
2022/06/05 20:30:25;;;;;;;2.72;1.95;;;23.30;90.80;;;;;;10012456;28;20496;-61
2022/06/05 20:35:25;;;;;;;3.05;1.90;;;23.20;90.90;;;;;;10012260;28;20049;-60
2022/06/05 20:40:21;;;;;;;2.80;1.77;;;23.20;91.10;;;;;;10012038;28;20022;-61
2022/06/05 20:45:24;;;;;;;1.92;1.65;;;23.20;91.20;;;;;;10018950;28;20038;-61
2022/06/05 20:50:23;;;;;;;3.13;1.92;;;23.20;91.30;;;;;;10018464;28;20041;-60
2022/06/05 20:55:17;;;;;;;2.53;1.80;;;23.10;91.40;;;;;;10018866;28;20500;-61
2022/06/05 21:00:12;;;;;;;3.73;1.73;;;23.10;91.50;;;;;;10018724;28;20058;-61
2022/06/05 21:10:13;;;;;;;2.28;1.65;;;22.90;91.80;;;;;;10008926;28;19917;-59
2022/06/05 21:20:22;;;;;;;3.45;1.77;;;22.80;91.80;;;;;;10017572;28;20065;-61
2022/06/05 21:25:16;;;;;;;2.50;1.60;;;22.80;91.80;;;;;;10018566;28;20038;-61
2022/06/05 21:30:26;;;;;;;2.28;1.45;;;22.90;91.90;;;;;;10017867;28;20018;-61
2022/06/05 21:35:24;;;;;;;3.03;1.60;;;22.80;92.00;;;;;;10018529;28;20034;-61
2022/06/05 21:40:15;;;;;;;3.03;1.52;;;22.70;92.10;;;;;;10018415;28;20026;-61
2022/06/05 21:45:09;;;;;;;2.75;1.83;;;22.70;92.20;;;;;;9999384;28;20544;-60
2022/06/05 21:50:01;;;;;;;2.88;1.85;;;22.80;92.20;;;;;;10016491;28;20037;-60
2022/06/05 21:54:59;;;;;;;2.90;1.42;;;22.80;92.20;;;;;;10016580;28;20073;-62
2022/06/05 21:59:50;;;;;;;2.53;1.85;;;22.80;92.30;;;;;;10016565;28;20100;-60
2022/06/05 22:04:41;;;;;;;2.88;1.88;;;22.70;92.40;;;;;;10016970;28;20507;-60
2022/06/05 22:09:32;;;;;;;2.15;1.83;;;22.60;92.50;;;;;;10016014;28;20022;-61
2022/06/05 22:14:25;;;;;;;2.58;1.67;;;22.40;92.70;;;;;;10015880;28;20030;-60
2022/06/05 22:19:17;;;;;;;2.58;1.65;;;22.30;92.90;;;;;;9998168;28;20357;-60
2022/06/05 22:24:07;;;;;;;2.20;1.50;;;22.30;92.90;;;;;;10016009;28;20447;-60
2022/06/05 22:28:58;;;;;;;1.90;1.70;;;22.40;93.10;;;;;;10015491;28;20029;-60
2022/06/05 22:33:49;;;;;;;1.88;1.40;;;22.30;93.20;;;;;;10015543;28;20420;-60
2022/06/05 22:38:40;;;;;;;1.65;1.45;;;22.20;93.30;;;;;;10014565;28;20026;-61
2022/06/05 22:43:31;;;;;;;2.05;1.80;;;22.10;93.30;;;;;;10014609;28;20164;-60
2022/06/05 22:48:22;;;;;;;3.53;1.92;;;22.20;93.50;;;;;;9995942;28;20091;-61
2022/06/05 22:53:12;;;;;;;4.35;2.10;;;22.00;93.70;;;;;;10014332;28;20420;-61
2022/06/05 22:58:03;;;;;;;2.80;2.17;;;21.80;93.90;;;;;;10013448;28;20040;-59
2022/06/05 23:02:54;;;;;;;4.10;2.05;;;21.70;94.10;;;;;;10013373;28;20025;-61
2022/06/05 23:07:45;;;;;;;2.55;1.42;;;21.50;94.30;;;;;;10014028;28;20037;-62
2022/06/05 23:12:36;;;;;;;2.65;2.05;;;21.30;94.50;;;;;;10013129;28;20028;-63
2022/06/05 23:17:27;;;;;;;5.28;2.95;;;21.20;94.70;;;;;;10013441;28;20520;-61
2022/06/05 23:22:19;;;;;;;3.85;3.33;;;21.10;94.80;;;;;;10013492;28;20060;-61
2022/06/05 23:27:11;;;;;;;3.22;1.60;;;20.90;95.00;;;;;;10012956;28;20042;-61
2022/06/05 23:32:06;;;;;;;3.63;2.40;;;20.80;95.30;;;;;;10014395;28;20092;-61
2022/06/05 23:36:58;;;;;;;2.88;2.15;;;20.70;95.40;;;;;;10011374;28;20045;-61
2022/06/05 23:41:49;;;;;;;2.35;1.85;;;20.70;95.30;;;;;;10016323;28;20014;-60
2022/06/05 23:46:43;;;;;;;2.88;1.90;;;20.70;95.40;;;;;;10013732;28;20082;-62
2022/06/05 23:51:33;;;;;;;4.15;2.30;;;20.70;95.50;;;;;;10012947;28;20513;-60
